createdAt,value
2022-11-27T00:01:37.496Z,52.00
2022-11-27T00:04:07.807Z,50.45
2022-11-27T00:06:38.123Z,49.35
2022-11-27T00:09:11.871Z,52.22
2022-11-27T00:11:40.431Z,50.08
2022-11-27T00:14:18.040Z,52.42
2022-11-27T00:16:45.636Z,49.85
2022-11-27T00:19:13.538Z,49.67
2022-11-27T00:21:41.306Z,49.80
2022-11-27T00:24:11.140Z,52.42
2022-11-27T00:26:44.378Z,52.75
2022-11-27T00:29:12.267Z,51.88
2022-11-27T00:31:40.014Z,51.53
2022-11-27T00:34:09.103Z,51.22
2022-11-27T00:36:37.802Z,50.90
2022-11-27T00:39:06.457Z,50.92
2022-11-27T00:41:34.316Z,48.35
2022-11-27T00:44:02.351Z,50.13
2022-11-27T00:46:33.348Z,47.97
2022-11-27T00:49:04.378Z,49.25
2022-11-27T00:51:32.223Z,51.92
2022-11-27T00:54:00.595Z,50.75
2022-11-27T00:56:32.123Z,51.25
2022-11-27T00:59:00.496Z,48.40
2022-11-27T01:01:42.524Z,47.65
2022-11-27T01:04:15.148Z,48.10
2022-11-27T01:06:43.531Z,45.50
2022-11-27T01:09:15.517Z,45.73
2022-11-27T01:11:43.446Z,46.00
2022-11-27T01:14:16.680Z,45.42
2022-11-27T01:16:44.786Z,45.95
2022-11-27T01:19:14.367Z,46.33
2022-11-27T01:21:42.430Z,42.22
2022-11-27T01:24:12.526Z,45.92
2022-11-27T01:26:41.129Z,45.47
2022-11-27T01:29:09.131Z,47.15
2022-11-27T01:31:36.973Z,46.05
2022-11-27T01:34:13.266Z,45.78
2022-11-27T01:36:41.156Z,44.83
2022-11-27T01:39:19.955Z,43.88
2022-11-27T01:41:48.995Z,44.53
2022-11-27T01:44:25.821Z,43.92
2022-11-27T01:47:10.436Z,44.90
2022-11-27T01:49:44.674Z,43.40
2022-11-27T01:52:24.039Z,44.63
2022-11-27T01:55:28.263Z,44.60
2022-11-27T01:58:07.505Z,44.47
2022-11-27T02:00:36.211Z,43.63
2022-11-27T02:03:04.102Z,45.35
2022-11-27T02:05:33.473Z,43.42
2022-11-27T02:08:07.764Z,44.42
2022-11-27T02:10:54.728Z,42.47
2022-11-27T02:13:36.949Z,45.58
2022-11-27T02:16:44.180Z,44.67
2022-11-27T02:20:03.492Z,45.30
2022-11-27T02:23:18.021Z,42.78
2022-11-27T02:26:15.658Z,42.88
2022-11-27T02:29:20.347Z,42.80
2022-11-27T02:32:26.030Z,44.15
2022-11-27T02:35:32.375Z,42.72
2022-11-27T02:38:15.451Z,43.65
2022-11-27T02:40:54.868Z,46.42
2022-11-27T02:43:40.766Z,45.88
2022-11-27T02:46:11.008Z,44.63
2022-11-27T02:48:48.002Z,44.00
2022-11-27T02:51:22.547Z,44.30
2022-11-27T02:53:59.341Z,42.97
2022-11-27T02:56:31.018Z,43.97
2022-11-27T02:59:05.236Z,46.90
2022-11-27T03:01:40.808Z,42.75
2022-11-27T03:04:15.491Z,42.92
2022-11-27T03:06:49.337Z,40.33
2022-11-27T03:09:27.906Z,40.25
2022-11-27T03:11:57.256Z,42.83
2022-11-27T03:14:25.828Z,44.45
2022-11-27T03:17:10.633Z,44.50
2022-11-27T03:19:45.868Z,44.97
2022-11-27T03:22:13.728Z,45.53
2022-11-27T03:24:41.653Z,45.92
2022-11-27T03:27:13.810Z,46.17
2022-11-27T03:29:59.028Z,47.95
2022-11-27T03:32:29.226Z,46.95
2022-11-27T03:34:57.514Z,50.75
2022-11-27T03:37:25.951Z,50.70
2022-11-27T03:39:54.181Z,51.10
2022-11-27T03:42:39.428Z,50.53
2022-11-27T03:45:38.654Z,50.67
2022-11-27T03:48:21.399Z,47.72
2022-11-27T03:51:16.526Z,53.10
2022-11-27T03:54:05.612Z,51.95
2022-11-27T03:57:03.793Z,57.05
2022-11-27T03:59:37.597Z,55.35
2022-11-27T04:02:05.242Z,54.63
2022-11-27T04:04:33.082Z,56.35
2022-11-27T04:07:00.634Z,59.75
2022-11-27T04:09:28.427Z,56.05
2022-11-27T04:11:55.917Z,57.97
2022-11-27T04:14:23.649Z,55.88
2022-11-27T04:16:51.212Z,57.45
2022-11-27T04:19:19.020Z,56.00
2022-11-27T04:21:46.528Z,57.10
2022-11-27T04:24:14.407Z,54.38
2022-11-27T04:26:41.845Z,57.67
2022-11-27T04:29:09.736Z,56.33
2022-11-27T04:31:37.303Z,58.25
2022-11-27T04:34:05.210Z,55.80
2022-11-27T04:36:38.858Z,58.05
2022-11-27T04:39:07.338Z,57.88
2022-11-27T04:41:34.955Z,55.65
2022-11-27T04:44:02.761Z,58.22
2022-11-27T04:46:30.563Z,56.25
2022-11-27T04:48:58.372Z,54.63
2022-11-27T04:51:25.942Z,56.20
2022-11-27T04:53:53.894Z,58.80
2022-11-27T04:56:21.493Z,58.38
2022-11-27T04:58:49.366Z,58.35
2022-11-27T05:01:17.020Z,59.75
2022-11-27T05:03:46.594Z,61.10
2022-11-27T05:06:14.313Z,62.22
2022-11-27T05:08:42.234Z,59.67
2022-11-27T05:11:14.289Z,64.03
2022-11-27T05:13:43.010Z,61.03
2022-11-27T05:16:10.914Z,63.67
2022-11-27T05:18:38.827Z,59.20
2022-11-27T05:21:08.559Z,61.85
2022-11-27T05:23:36.484Z,60.72
2022-11-27T05:26:04.075Z,62.20
2022-11-27T05:28:31.948Z,61.78
2022-11-27T05:30:59.872Z,59.25
2022-11-27T05:33:27.746Z,62.35
2022-11-27T05:35:55.389Z,62.88
2022-11-27T05:38:23.134Z,60.72
2022-11-27T05:40:50.642Z,60.83
2022-11-27T05:43:18.546Z,61.70
2022-11-27T05:45:46.013Z,60.30
2022-11-27T05:48:13.875Z,63.40
2022-11-27T05:50:41.409Z,61.13
2022-11-27T05:53:09.347Z,62.00
2022-11-27T05:55:36.808Z,61.25
2022-11-27T05:58:04.794Z,61.13
2022-11-27T06:00:32.482Z,64.25
2022-11-27T06:03:00.536Z,63.35
2022-11-27T06:05:28.162Z,61.50
2022-11-27T06:07:56.011Z,61.22
2022-11-27T06:10:23.653Z,63.88
2022-11-27T06:12:51.471Z,64.70
2022-11-27T06:15:18.912Z,60.05
2022-11-27T06:17:49.279Z,61.53
2022-11-27T06:20:17.386Z,63.60
2022-11-27T06:22:45.285Z,61.50
2022-11-27T06:25:12.795Z,62.78
2022-11-27T06:27:40.713Z,62.78
2022-11-27T06:30:09.456Z,62.42
2022-11-27T06:32:37.308Z,62.63
2022-11-27T06:35:05.409Z,59.53
2022-11-27T06:37:33.390Z,62.22
2022-11-27T06:40:01.001Z,60.70
2022-11-27T06:42:32.228Z,63.42
2022-11-27T06:44:59.750Z,59.55
2022-11-27T06:47:27.756Z,61.28
2022-11-27T06:49:55.328Z,62.85
2022-11-27T06:52:23.196Z,61.25
2022-11-27T06:54:50.739Z,58.15
2022-11-27T06:57:18.664Z,57.30
2022-11-27T06:59:46.418Z,58.65
2022-11-27T07:02:15.380Z,57.00
2022-11-27T07:04:43.025Z,54.53
2022-11-27T07:07:11.213Z,58.42
2022-11-27T07:09:42.057Z,56.17
2022-11-27T07:12:11.485Z,56.55
2022-11-27T07:14:39.229Z,52.60
2022-11-27T07:17:07.315Z,53.03
2022-11-27T07:19:34.849Z,52.83
2022-11-27T07:22:03.003Z,54.53
2022-11-27T07:24:30.503Z,56.00
2022-11-27T07:26:58.441Z,54.20
2022-11-27T07:29:26.105Z,55.30
2022-11-27T07:31:53.913Z,56.67
2022-11-27T07:34:22.050Z,57.22
2022-11-27T07:36:49.897Z,55.45
2022-11-27T07:39:33.886Z,55.50
2022-11-27T07:42:36.432Z,56.65
2022-11-27T07:44:55.664Z,55.90
2022-11-27T07:47:23.498Z,57.22
2022-11-27T07:49:51.105Z,60.17
2022-11-27T07:52:19.082Z,56.92
2022-11-27T07:54:46.561Z,58.35
2022-11-27T07:57:14.329Z,57.03
2022-11-27T07:59:46.987Z,56.33
2022-11-27T08:02:15.922Z,55.67
2022-11-27T08:04:43.790Z,56.53
2022-11-27T08:07:12.627Z,57.42
2022-11-27T08:09:40.357Z,57.30
2022-11-27T08:12:08.225Z,58.03
2022-11-27T08:14:36.027Z,56.78
2022-11-27T08:17:03.881Z,60.10
2022-11-27T08:19:31.549Z,57.22
2022-11-27T08:21:59.448Z,57.05
2022-11-27T08:24:26.940Z,56.28
2022-11-27T08:26:55.082Z,57.80
2022-11-27T08:29:22.864Z,59.85
2022-11-27T08:31:50.681Z,60.30
2022-11-27T08:34:18.248Z,58.33
2022-11-27T08:36:46.142Z,58.78
2022-11-27T08:39:14.383Z,61.40
2022-11-27T08:41:42.323Z,59.10
2022-11-27T08:44:09.913Z,58.33
2022-11-27T08:46:37.838Z,59.67
2022-11-27T08:49:05.400Z,63.15
2022-11-27T08:51:33.233Z,64.38
2022-11-27T08:54:00.664Z,60.70
2022-11-27T08:56:28.865Z,62.08
2022-11-27T08:58:57.272Z,62.25
2022-11-27T09:01:29.694Z,61.03
2022-11-27T09:03:57.832Z,63.15
2022-11-27T09:06:29.955Z,58.83
2022-11-27T09:08:59.939Z,58.63
2022-11-27T09:11:31.201Z,58.90
2022-11-27T09:14:03.882Z,59.83
2022-11-27T09:16:50.156Z,58.65
2022-11-27T09:19:18.207Z,55.75
2022-11-27T09:21:46.936Z,56.65
2022-11-27T09:24:14.396Z,54.28
2022-11-27T09:26:42.318Z,56.83
2022-11-27T09:29:09.791Z,56.15
2022-11-27T09:31:37.619Z,56.67
2022-11-27T09:34:05.875Z,55.35
2022-11-27T09:36:33.840Z,55.30
2022-11-27T09:39:04.239Z,56.85
2022-11-27T09:41:55.405Z,55.90
2022-11-27T09:44:45.360Z,53.58
2022-11-27T09:47:42.010Z,53.33
2022-11-27T09:50:24.375Z,57.50
2022-11-27T09:53:06.463Z,57.38
2022-11-27T09:55:47.285Z,56.80
2022-11-27T09:58:21.578Z,58.60
2022-11-27T10:00:49.145Z,53.63
2022-11-27T10:03:25.553Z,53.10
2022-11-27T10:06:22.083Z,56.08
2022-11-27T10:09:19.333Z,51.63
2022-11-27T10:12:30.692Z,54.20
2022-11-27T10:15:13.969Z,51.90
2022-11-27T10:18:01.579Z,54.80
2022-11-27T10:20:32.896Z,54.08
2022-11-27T10:23:14.858Z,51.25
2022-11-27T10:25:52.489Z,50.72
2022-11-27T10:28:48.941Z,48.47
2022-11-27T10:31:50.226Z,52.95
2022-11-27T10:34:58.557Z,52.83
2022-11-27T10:38:10.150Z,50.92
2022-11-27T10:40:49.148Z,52.55
2022-11-27T10:43:23.296Z,49.70
2022-11-27T10:46:20.467Z,49.22
2022-11-27T10:48:48.746Z,50.33
2022-11-27T10:51:29.354Z,49.42
2022-11-27T10:54:01.042Z,51.47
2022-11-27T10:57:33.413Z,49.33
2022-11-27T11:00:13.544Z,50.25
2022-11-27T11:02:41.919Z,49.25
2022-11-27T11:08:20.868Z,49.72
2022-11-27T11:10:57.901Z,50.08
2022-11-27T11:13:41.367Z,51.97
2022-11-27T11:16:14.790Z,54.03
2022-11-27T11:18:49.671Z,54.33
2022-11-27T11:21:29.693Z,54.65
2022-11-27T11:24:05.092Z,51.85
2022-11-27T11:26:51.411Z,51.85
2022-11-27T11:29:46.751Z,55.63
2022-11-27T11:32:21.580Z,56.97
2022-11-27T11:35:08.539Z,57.20
2022-11-27T11:37:45.486Z,51.42
2022-11-27T11:40:23.703Z,51.30
2022-11-27T11:43:01.257Z,52.10
2022-11-27T11:45:34.568Z,53.15
2022-11-27T11:48:28.179Z,49.10
2022-11-27T11:51:26.421Z,49.30
2022-11-27T11:54:40.207Z,49.58
2022-11-27T11:57:45.786Z,50.55
2022-11-27T12:00:18.375Z,49.17
2022-11-27T12:03:05.719Z,47.42
2022-11-27T12:06:07.194Z,50.45
2022-11-27T12:08:56.383Z,47.45
2022-11-27T12:12:18.677Z,48.00
2022-11-27T12:15:16.290Z,50.17
2022-11-27T12:18:42.973Z,46.60
2022-11-27T12:21:30.790Z,44.63
2022-11-27T12:24:29.194Z,47.75
2022-11-27T12:27:15.965Z,45.45
2022-11-27T12:30:23.880Z,41.63
2022-11-27T12:33:13.090Z,44.70
2022-11-27T12:36:07.129Z,45.60
2022-11-27T12:39:03.576Z,39.67
2022-11-27T12:42:12.438Z,41.17
2022-11-27T12:48:39.371Z,36.97
2022-11-27T12:57:33.960Z,34.08
2022-11-27T13:00:08.072Z,32.17
2022-11-27T13:03:01.133Z,31.80
2022-11-27T13:05:41.309Z,32.58
2022-11-27T13:11:36.315Z,34.70
2022-11-27T13:14:26.939Z,32.63
2022-11-27T13:17:05.252Z,30.48
2022-11-27T13:19:47.180Z,34.38
2022-11-27T13:22:27.531Z,32.75
2022-11-27T13:24:56.749Z,35.10
2022-11-27T13:27:29.529Z,35.72
2022-11-27T13:30:09.672Z,34.78
2022-11-27T13:32:48.601Z,34.10
2022-11-27T13:35:36.571Z,33.38
2022-11-27T13:38:26.476Z,32.65
2022-11-27T13:40:57.531Z,34.22
2022-11-27T13:43:47.123Z,31.13
2022-11-27T13:46:26.497Z,34.63
2022-11-27T13:49:02.884Z,38.65
2022-11-27T13:51:35.300Z,37.35
2022-11-27T13:54:29.413Z,37.70
2022-11-27T13:56:56.936Z,35.10
2022-11-27T13:59:26.095Z,33.92
2022-11-27T14:01:58.672Z,34.17
2022-11-27T14:04:29.134Z,33.10
2022-11-27T14:07:10.332Z,35.17
2022-11-27T14:09:46.577Z,32.80
2022-11-27T14:12:29.539Z,31.92
2022-11-27T14:15:16.667Z,31.27
2022-11-27T14:17:47.538Z,32.17
2022-11-27T14:20:18.176Z,28.40
2022-11-27T14:23:13.207Z,28.77
2022-11-27T14:25:41.822Z,28.85
2022-11-27T14:28:21.682Z,29.75
2022-11-27T14:30:56.967Z,27.75
2022-11-27T14:33:33.217Z,31.05
2022-11-27T14:36:08.054Z,30.13
2022-11-27T14:38:37.230Z,31.42
2022-11-27T14:43:44.144Z,25.42
2022-11-27T14:46:21.593Z,25.88
2022-11-27T14:48:57.454Z,25.63
2022-11-27T14:51:29.095Z,29.08
2022-11-27T14:54:25.603Z,20.15
2022-11-27T14:56:54.174Z,25.30
2022-11-27T14:59:24.022Z,23.15
2022-11-27T15:02:11.452Z,19.45
2022-11-27T15:04:42.262Z,18.05
2022-11-27T15:07:25.175Z,17.10
2022-11-27T15:09:56.927Z,25.42
2022-11-27T15:12:30.692Z,30.08
2022-11-27T15:15:29.028Z,34.25
2022-11-27T15:18:03.645Z,38.33
2022-11-27T15:20:42.596Z,39.50
2022-11-27T15:23:34.098Z,39.22
2022-11-27T15:26:17.816Z,41.53
2022-11-27T15:28:53.114Z,38.55
2022-11-27T15:31:38.249Z,36.65
2022-11-27T15:34:30.127Z,35.53
2022-11-27T15:37:03.813Z,35.33
2022-11-27T15:39:53.408Z,35.58
2022-11-27T15:42:22.430Z,30.23
2022-11-27T15:44:55.865Z,32.00
2022-11-27T15:47:27.523Z,29.75
2022-11-27T15:49:56.143Z,26.65
2022-11-27T15:52:23.895Z,26.95
2022-11-27T15:54:52.532Z,26.48
2022-11-27T15:57:20.369Z,27.33
2022-11-27T15:59:50.792Z,29.65
2022-11-27T16:02:20.828Z,33.95
2022-11-27T16:04:50.470Z,27.02
2022-11-27T16:07:18.080Z,35.80
2022-11-27T16:09:49.159Z,30.43
2022-11-27T16:12:16.837Z,31.38
2022-11-27T16:14:44.679Z,29.42
2022-11-27T16:17:12.338Z,28.95
2022-11-27T16:19:40.827Z,27.38
2022-11-27T16:22:08.618Z,23.70
2022-11-27T16:24:38.049Z,25.50
2022-11-27T16:27:07.260Z,27.35
2022-11-27T16:32:03.441Z,25.75
2022-11-27T16:34:31.343Z,25.45
2022-11-27T16:36:59.471Z,27.25
2022-11-27T16:39:28.620Z,27.55
2022-11-27T16:41:57.303Z,24.90
2022-11-27T16:44:25.472Z,29.23
2022-11-27T16:46:53.855Z,28.55
2022-11-27T16:49:21.992Z,30.63
2022-11-27T16:51:50.787Z,29.20
2022-11-27T16:54:19.668Z,28.00
2022-11-27T16:56:47.481Z,25.60
2022-11-27T16:59:15.707Z,28.15
2022-11-27T17:01:44.785Z,28.63
2022-11-27T17:04:20.632Z,28.67
2022-11-27T17:06:50.369Z,26.25
2022-11-27T17:09:20.491Z,28.55
2022-11-27T17:11:49.091Z,25.35
2022-11-27T17:14:19.942Z,27.65
2022-11-27T17:16:48.038Z,28.38
2022-11-27T17:19:17.765Z,25.55
2022-11-27T17:21:46.283Z,26.48
2022-11-27T17:24:17.061Z,26.27
2022-11-27T17:26:48.078Z,28.05
2022-11-27T17:29:20.982Z,26.50
2022-11-27T17:31:50.710Z,27.58
2022-11-27T17:34:19.013Z,27.33
2022-11-27T17:36:53.383Z,29.13
2022-11-27T17:39:21.826Z,30.35
2022-11-27T17:41:49.494Z,33.08
2022-11-27T17:44:17.423Z,34.17
2022-11-27T17:46:49.938Z,36.08
2022-11-27T17:49:19.459Z,39.00
2022-11-27T17:51:48.204Z,39.38
2022-11-27T17:54:16.243Z,42.63
2022-11-27T17:56:51.105Z,40.25
2022-11-27T17:59:20.338Z,39.67
2022-11-27T18:01:51.441Z,38.80
2022-11-27T18:04:20.918Z,37.55
2022-11-27T18:06:48.989Z,38.30
2022-11-27T18:09:16.958Z,39.10
2022-11-27T18:11:44.728Z,39.47
2022-11-27T18:14:13.730Z,38.30
2022-11-27T18:16:42.414Z,36.10
2022-11-27T18:19:12.072Z,34.33
2022-11-27T18:21:40.587Z,34.13
2022-11-27T18:24:22.983Z,34.20
2022-11-27T18:27:10.560Z,32.38
2022-11-27T18:29:42.495Z,30.02
2022-11-27T18:32:12.052Z,31.30
2022-11-27T18:37:09.251Z,31.63
2022-11-27T18:39:38.792Z,30.67
2022-11-27T18:42:07.768Z,30.38
2022-11-27T18:47:35.049Z,30.48
2022-11-27T18:50:06.887Z,31.17
2022-11-27T18:52:37.063Z,30.75
2022-11-27T18:57:33.751Z,28.63
2022-11-27T19:00:01.705Z,26.00
2022-11-27T19:02:29.980Z,27.63
2022-11-27T19:04:58.359Z,27.52
2022-11-27T19:07:28.168Z,28.70
2022-11-27T19:09:58.909Z,29.38
2022-11-27T19:12:26.757Z,27.55
2022-11-27T19:14:55.824Z,27.25
2022-11-27T19:17:30.844Z,27.55
2022-11-27T19:20:00.630Z,28.95
2022-11-27T19:22:28.982Z,28.42
2022-11-27T19:24:57.939Z,31.05
2022-11-27T19:27:25.978Z,33.50
2022-11-27T19:29:54.271Z,33.40
2022-11-27T19:32:22.402Z,31.35
2022-11-27T19:34:51.517Z,32.63
2022-11-27T19:37:33.467Z,32.38
2022-11-27T19:40:04.116Z,32.53
2022-11-27T19:42:32.679Z,34.15
2022-11-27T19:45:00.607Z,35.30
2022-11-27T19:47:28.187Z,33.90
2022-11-27T19:49:56.077Z,31.77
2022-11-27T19:52:23.794Z,36.08
2022-11-27T19:54:51.668Z,30.25
2022-11-27T19:57:19.427Z,31.95
2022-11-27T19:59:47.339Z,28.83
2022-11-27T20:02:18.025Z,27.85
2022-11-27T20:04:46.785Z,29.02
2022-11-27T20:07:15.180Z,31.52
2022-11-27T20:09:43.525Z,28.85
2022-11-27T20:12:11.449Z,28.23
2022-11-27T20:14:39.699Z,29.13
2022-11-27T20:17:08.012Z,27.67
2022-11-27T20:19:36.096Z,27.48
2022-11-27T20:22:03.823Z,27.08
2022-11-27T20:24:31.793Z,25.92
2022-11-27T20:26:59.988Z,28.15
2022-11-27T20:29:28.346Z,30.58
2022-11-27T20:31:55.884Z,33.72
2022-11-27T20:34:24.069Z,34.13
2022-11-27T20:36:51.725Z,32.15
2022-11-27T20:39:21.869Z,27.02
2022-11-27T20:41:52.165Z,24.92
2022-11-27T20:44:22.603Z,24.55
2022-11-27T20:46:51.131Z,23.38
2022-11-27T20:49:20.721Z,24.65
2022-11-27T20:51:50.662Z,23.77
2022-11-27T20:54:23.128Z,23.35
2022-11-27T20:56:51.694Z,23.83
2022-11-27T20:59:20.106Z,23.55
2022-11-27T21:01:51.904Z,21.65
2022-11-27T21:04:26.367Z,23.10
2022-11-27T21:06:54.511Z,23.98
2022-11-27T21:09:22.725Z,22.27
2022-11-27T21:11:50.859Z,23.23
2022-11-27T21:14:19.485Z,21.15
2022-11-27T21:16:49.954Z,20.42
2022-11-27T21:19:26.487Z,23.60
2022-11-27T21:21:57.210Z,24.02
2022-11-27T21:24:28.487Z,21.80
2022-11-27T21:26:56.767Z,20.95
2022-11-27T21:29:27.812Z,25.83
2022-11-27T21:31:57.214Z,28.83
2022-11-27T21:34:29.083Z,30.27
2022-11-27T21:36:57.535Z,28.35
2022-11-27T21:39:36.685Z,29.10
2022-11-27T21:42:14.192Z,27.20
2022-11-27T21:44:51.777Z,27.23
2022-11-27T21:47:24.850Z,26.17
2022-11-27T21:49:52.860Z,27.40
2022-11-27T21:52:20.600Z,25.63
2022-11-27T21:54:50.892Z,21.60
2022-11-27T21:57:20.721Z,20.20
2022-11-27T21:59:48.712Z,20.67
2022-11-27T22:02:16.529Z,21.67
2022-11-27T22:04:44.794Z,22.15
2022-11-27T22:07:12.621Z,21.30
2022-11-27T22:09:40.973Z,21.50
2022-11-27T22:12:08.860Z,22.38
2022-11-27T22:14:36.807Z,23.08
2022-11-27T22:17:05.130Z,21.13
2022-11-27T22:19:36.546Z,23.05
2022-11-27T22:22:08.898Z,23.73
2022-11-27T22:24:58.950Z,24.63
2022-11-27T22:27:40.605Z,27.42
2022-11-27T22:30:09.350Z,26.00
2022-11-27T22:32:37.053Z,26.92
2022-11-27T22:35:05.920Z,30.08
2022-11-27T22:37:35.541Z,28.30
2022-11-27T22:40:05.748Z,26.98
2022-11-27T22:42:34.033Z,27.50
2022-11-27T22:45:02.497Z,27.65
2022-11-27T22:47:29.981Z,24.83
2022-11-27T22:49:59.085Z,25.00
2022-11-27T22:52:28.005Z,25.75
2022-11-27T22:54:56.012Z,26.00
2022-11-27T22:57:23.828Z,24.65
2022-11-27T22:59:51.771Z,27.20
2022-11-27T23:02:19.638Z,23.23
2022-11-27T23:04:47.605Z,22.60
2022-11-27T23:07:15.278Z,22.58
2022-11-27T23:09:43.238Z,22.08
2022-11-27T23:12:10.783Z,22.98
2022-11-27T23:14:39.944Z,23.70
2022-11-27T23:17:07.850Z,23.40
2022-11-27T23:19:35.825Z,23.88
2022-11-27T23:22:03.371Z,23.05
2022-11-27T23:24:31.220Z,25.92
2022-11-27T23:26:58.821Z,26.08
2022-11-27T23:29:26.927Z,25.38
2022-11-27T23:31:54.580Z,26.35
2022-11-27T23:34:22.628Z,25.65
2022-11-27T23:36:50.285Z,26.15
2022-11-27T23:39:18.177Z,25.52
2022-11-27T23:41:46.824Z,27.67
2022-11-27T23:44:15.070Z,27.88
2022-11-27T23:46:42.777Z,26.80
2022-11-27T23:49:11.002Z,27.40
2022-11-27T23:51:38.634Z,29.23
2022-11-27T23:54:10.457Z,27.60
2022-11-27T23:56:39.935Z,27.48
2022-11-27T23:59:08.024Z,27.55
